createdAt,value
2023-01-11T00:00:44.960Z,0.87
2023-01-11T00:03:12.196Z,0.90
2023-01-11T00:05:40.117Z,0.73
2023-01-11T00:08:07.779Z,1.00
2023-01-11T00:10:35.177Z,1.07
2023-01-11T00:13:02.550Z,0.80
2023-01-11T00:15:29.694Z,0.70
2023-01-11T00:17:57.672Z,0.70
2023-01-11T00:20:24.930Z,0.90
2023-01-11T00:22:52.270Z,0.77
2023-01-11T00:25:19.364Z,0.60
2023-01-11T00:27:49.349Z,1.00
2023-01-11T00:30:17.140Z,0.73
2023-01-11T00:32:44.450Z,0.60
2023-01-11T00:35:11.690Z,0.73
2023-01-11T00:37:39.030Z,0.60
2023-01-11T00:40:06.696Z,0.80
2023-01-11T00:42:52.739Z,0.60
2023-01-11T00:45:38.582Z,0.83
2023-01-11T00:48:09.119Z,0.70
2023-01-11T00:50:37.857Z,0.50
2023-01-11T00:53:05.455Z,0.80
2023-01-11T00:55:32.820Z,0.93
2023-01-11T00:58:00.459Z,0.70
2023-01-11T01:00:28.117Z,0.93
2023-01-11T01:02:55.351Z,0.90
2023-01-11T01:05:22.682Z,1.23
2023-01-11T01:07:49.759Z,0.70
2023-01-11T01:10:17.735Z,0.70
2023-01-11T01:13:04.077Z,0.77
2023-01-11T01:15:31.816Z,0.80
2023-01-11T01:17:59.043Z,0.50
2023-01-11T01:20:26.582Z,0.67
2023-01-11T01:22:53.775Z,0.60
2023-01-11T01:25:20.907Z,0.60
2023-01-11T01:27:48.021Z,0.80
2023-01-11T01:30:15.325Z,0.80
2023-01-11T01:32:42.759Z,0.60
2023-01-11T01:35:10.200Z,0.87
2023-01-11T01:37:37.792Z,0.50
2023-01-11T01:40:05.856Z,0.60
2023-01-11T01:42:32.982Z,0.70
2023-01-11T01:45:01.523Z,0.60
2023-01-11T01:47:31.903Z,0.67
2023-01-11T01:50:02.348Z,0.80
2023-01-11T01:52:30.330Z,0.77
2023-01-11T01:55:00.871Z,0.60
2023-01-11T01:57:31.427Z,0.67
2023-01-11T01:59:59.209Z,0.50
2023-01-11T02:02:27.069Z,0.53
2023-01-11T02:04:56.355Z,0.60
2023-01-11T02:07:27.274Z,0.60
2023-01-11T02:10:00.579Z,0.70
2023-01-11T02:12:30.349Z,0.80
2023-01-11T02:15:00.109Z,0.60
2023-01-11T02:17:27.227Z,0.70
2023-01-11T02:20:00.465Z,0.77
2023-01-11T02:22:27.524Z,1.00
2023-01-11T02:25:10.755Z,0.83
2023-01-11T02:27:58.442Z,0.70
2023-01-11T02:30:40.598Z,0.80
2023-01-11T02:33:16.887Z,1.03
2023-01-11T02:35:52.942Z,1.10
2023-01-11T02:38:20.072Z,0.80
2023-01-11T02:40:47.222Z,0.97
2023-01-11T02:43:33.251Z,0.70
2023-01-11T02:46:00.368Z,0.70
2023-01-11T02:48:32.589Z,0.77
2023-01-11T02:50:59.717Z,0.90
2023-01-11T02:53:30.683Z,1.20
2023-01-11T02:56:00.115Z,0.90
2023-01-11T02:58:29.078Z,0.80
2023-01-11T03:00:58.477Z,0.80
2023-01-11T03:03:27.839Z,0.73
2023-01-11T03:05:59.731Z,0.70
2023-01-11T03:08:29.861Z,0.80
2023-01-11T03:11:05.762Z,0.80
2023-01-11T03:13:55.581Z,1.20
2023-01-11T03:16:25.734Z,0.80
2023-01-11T03:19:11.491Z,0.90
2023-01-11T03:21:41.594Z,0.90
2023-01-11T03:24:08.746Z,0.80
2023-01-11T03:26:41.716Z,0.83
2023-01-11T03:29:08.790Z,0.80
2023-01-11T03:31:39.104Z,0.80
2023-01-11T03:34:15.413Z,1.07
2023-01-11T03:36:55.132Z,0.90
2023-01-11T03:39:30.777Z,0.97
2023-01-11T03:42:00.336Z,1.07
2023-01-11T03:44:31.438Z,1.63
2023-01-11T03:47:01.840Z,1.40
2023-01-11T03:49:31.877Z,1.10
2023-01-11T03:52:00.336Z,1.40
2023-01-11T03:54:28.804Z,1.07
2023-01-11T03:57:11.215Z,1.20
2023-01-11T03:59:41.200Z,1.27
2023-01-11T04:02:18.975Z,1.57
2023-01-11T04:04:46.116Z,1.50
2023-01-11T04:07:14.448Z,1.40
2023-01-11T04:09:41.560Z,1.40
2023-01-11T04:12:08.736Z,1.60
2023-01-11T04:14:35.828Z,1.60
2023-01-11T04:17:02.978Z,1.33
2023-01-11T04:19:30.144Z,1.30
2023-01-11T04:21:57.434Z,1.40
2023-01-11T04:24:24.612Z,1.47
2023-01-11T04:26:51.703Z,1.70
2023-01-11T04:29:18.818Z,1.90
2023-01-11T04:31:45.976Z,1.73
2023-01-11T04:34:13.133Z,1.30
2023-01-11T04:36:40.285Z,1.67
2023-01-11T04:39:10.662Z,1.70
2023-01-11T04:41:57.355Z,1.60
2023-01-11T04:44:24.722Z,1.27
2023-01-11T04:46:51.792Z,1.13
2023-01-11T04:49:18.943Z,1.73
2023-01-11T04:51:46.365Z,1.50
2023-01-11T04:54:13.544Z,1.90
2023-01-11T04:56:40.708Z,2.00
2023-01-11T04:59:07.844Z,2.17
2023-01-11T05:01:34.956Z,1.60
2023-01-11T05:04:02.086Z,1.80
2023-01-11T05:06:29.324Z,2.33
2023-01-11T05:08:56.480Z,1.80
2023-01-11T05:11:23.578Z,1.50
2023-01-11T05:13:50.740Z,1.60
2023-01-11T05:16:23.705Z,2.17
2023-01-11T05:18:52.274Z,1.70
2023-01-11T05:21:20.392Z,1.67
2023-01-11T05:23:47.564Z,2.60
2023-01-11T05:26:17.750Z,1.40
2023-01-11T05:28:45.652Z,1.90
2023-01-11T05:31:13.301Z,2.00
2023-01-11T05:33:40.413Z,2.20
2023-01-11T05:36:09.272Z,1.90
2023-01-11T05:38:36.575Z,2.40
2023-01-11T05:41:05.432Z,2.30
2023-01-11T05:43:33.042Z,2.57
2023-01-11T05:46:01.548Z,2.87
2023-01-11T05:48:28.705Z,3.30
2023-01-11T05:50:56.355Z,2.43
2023-01-11T05:53:24.294Z,3.20
2023-01-11T05:55:58.689Z,3.13
2023-01-11T05:58:26.887Z,3.00
2023-01-11T06:00:55.042Z,3.03
2023-01-11T06:03:23.264Z,3.30
2023-01-11T06:05:50.764Z,2.43
2023-01-11T06:08:17.889Z,3.20
2023-01-11T06:10:46.214Z,3.20
2023-01-11T06:13:28.886Z,3.30
2023-01-11T06:16:00.117Z,3.07
2023-01-11T06:18:27.500Z,2.30
2023-01-11T06:20:55.488Z,2.33
2023-01-11T06:23:22.881Z,2.97
2023-01-11T06:25:50.132Z,3.30
2023-01-11T06:28:17.410Z,2.80
2023-01-11T06:30:44.844Z,2.53
2023-01-11T06:33:11.936Z,2.20
2023-01-11T06:35:40.256Z,2.50
2023-01-11T06:38:08.496Z,2.70
2023-01-11T06:40:36.382Z,2.63
2023-01-11T06:43:03.599Z,2.53
2023-01-11T06:45:31.452Z,2.93
2023-01-11T06:47:59.003Z,2.77
2023-01-11T06:50:26.611Z,1.53
2023-01-11T06:52:54.812Z,1.97
2023-01-11T06:55:22.345Z,0.97
2023-01-11T06:57:49.493Z,3.93
2023-01-11T07:00:17.379Z,1.20
2023-01-11T07:02:45.459Z,1.10
2023-01-11T07:05:12.722Z,0.90
2023-01-11T07:07:40.536Z,1.10
2023-01-11T07:10:10.050Z,0.80
2023-01-11T07:12:37.083Z,1.03
2023-01-11T07:15:09.414Z,0.97
2023-01-11T07:17:38.600Z,1.00
2023-01-11T07:20:06.281Z,0.87
2023-01-11T07:22:36.977Z,0.90
2023-01-11T07:25:05.182Z,0.70
2023-01-11T07:27:32.169Z,0.90
2023-01-11T07:29:59.924Z,1.20
2023-01-11T07:32:27.671Z,2.20
2023-01-11T07:34:55.219Z,1.77
2023-01-11T07:37:28.217Z,1.67
2023-01-11T07:39:56.227Z,2.00
2023-01-11T07:42:41.726Z,1.83
2023-01-11T07:45:08.939Z,2.10
2023-01-11T07:47:35.712Z,1.93
2023-01-11T07:50:02.432Z,2.50
2023-01-11T07:52:29.171Z,2.13
2023-01-11T07:55:02.117Z,2.37
2023-01-11T07:57:32.463Z,2.70
2023-01-11T07:59:59.158Z,2.87
2023-01-11T08:02:25.991Z,2.87
2023-01-11T08:04:52.819Z,3.93
2023-01-11T08:07:19.666Z,5.73
2023-01-11T08:09:46.377Z,3.83
2023-01-11T08:12:31.387Z,3.73
2023-01-11T08:14:58.105Z,4.00
2023-01-11T08:17:24.906Z,6.10
2023-01-11T08:19:51.839Z,5.50
2023-01-11T08:22:18.639Z,5.10
2023-01-11T08:24:45.380Z,4.47
2023-01-11T08:27:12.106Z,4.07
2023-01-11T08:29:39.959Z,4.47
2023-01-11T08:32:06.815Z,4.57
2023-01-11T08:34:34.838Z,3.73
2023-01-11T08:37:02.211Z,2.77
2023-01-11T08:39:31.046Z,2.80
2023-01-11T08:41:58.980Z,2.60
2023-01-11T08:44:33.783Z,2.20
2023-01-11T08:47:01.928Z,3.47
2023-01-11T08:49:30.356Z,2.37
2023-01-11T08:51:57.455Z,3.00
2023-01-11T08:54:24.998Z,2.77
2023-01-11T08:56:51.849Z,2.63
2023-01-11T08:59:20.003Z,2.97
2023-01-11T09:01:47.253Z,2.97
2023-01-11T09:04:24.247Z,3.00
2023-01-11T09:06:53.067Z,2.80
2023-01-11T09:09:19.948Z,3.10
2023-01-11T09:11:56.977Z,3.27
2023-01-11T09:14:26.018Z,2.83
2023-01-11T09:16:53.984Z,4.13
2023-01-11T09:19:21.522Z,2.87
2023-01-11T09:21:49.042Z,2.73
2023-01-11T09:24:15.868Z,3.23
2023-01-11T09:26:43.658Z,3.43
2023-01-11T09:29:11.162Z,3.40
2023-01-11T09:31:38.514Z,2.80
2023-01-11T09:34:07.128Z,3.43
2023-01-11T09:36:37.416Z,2.67
2023-01-11T09:39:08.436Z,3.33
2023-01-11T09:42:29.449Z,3.87
2023-01-11T09:45:05.249Z,3.50
2023-01-11T09:47:41.064Z,4.00
2023-01-11T09:50:19.807Z,3.63
2023-01-11T09:52:52.672Z,3.97
2023-01-11T09:55:52.890Z,3.30
2023-01-11T09:58:32.433Z,3.70
2023-01-11T10:01:11.034Z,3.43
2023-01-11T10:04:11.796Z,3.07
2023-01-11T10:07:03.707Z,2.47
2023-01-11T10:18:27.905Z,3.00
2023-01-11T10:18:52.867Z,3.13
2023-01-11T10:21:45.709Z,2.97
2023-01-11T10:24:17.552Z,2.97
2023-01-11T10:26:45.530Z,3.50
2023-01-11T10:29:54.031Z,3.73
2023-01-11T10:32:54.231Z,3.23
2023-01-11T10:35:47.803Z,4.47
2023-01-11T10:38:43.542Z,3.23
2023-01-11T10:41:29.999Z,3.10
2023-01-11T10:44:19.212Z,3.70
2023-01-11T10:46:53.762Z,5.07
2023-01-11T10:49:45.435Z,2.93
2023-01-11T10:52:22.541Z,2.43
2023-01-11T10:54:54.666Z,3.50
2023-01-11T10:57:27.939Z,2.90
2023-01-11T11:00:18.943Z,3.33
2023-01-11T11:02:54.442Z,3.07
2023-01-11T11:05:41.571Z,3.43
2023-01-11T11:08:27.003Z,4.30
2023-01-11T11:11:02.557Z,4.60
2023-01-11T11:13:38.398Z,3.07
2023-01-11T11:16:23.523Z,3.93
2023-01-11T11:18:52.075Z,2.30
2023-01-11T11:21:41.402Z,2.93
2023-01-11T11:24:14.106Z,2.97
2023-01-11T11:26:46.087Z,2.87
2023-01-11T11:29:22.575Z,3.43
2023-01-11T11:31:50.330Z,3.73
2023-01-11T11:34:22.284Z,3.80
2023-01-11T11:36:51.568Z,4.83
2023-01-11T11:39:30.899Z,4.10
2023-01-11T11:42:08.419Z,3.93
2023-01-11T11:44:35.480Z,4.30
2023-01-11T11:47:13.927Z,4.47
2023-01-11T11:49:41.997Z,5.30
2023-01-11T11:52:15.118Z,5.13
2023-01-11T11:55:05.867Z,4.07
2023-01-11T11:57:42.676Z,4.20
2023-01-11T12:00:31.126Z,4.17
2023-01-11T12:03:18.533Z,4.50
2023-01-11T12:06:01.153Z,4.50
2023-01-11T12:08:29.952Z,5.23
2023-01-11T12:11:00.160Z,4.50
2023-01-11T12:13:34.383Z,4.63
2023-01-11T12:16:07.604Z,4.27
2023-01-11T12:18:44.400Z,4.90
2023-01-11T12:21:21.909Z,4.47
2023-01-11T12:24:08.576Z,3.33
2023-01-11T12:27:00.373Z,3.10
2023-01-11T12:29:27.050Z,4.00
2023-01-11T12:32:25.490Z,3.60
2023-01-11T12:35:17.695Z,4.10
2023-01-11T12:37:53.279Z,3.57
2023-01-11T12:40:40.970Z,3.63
2023-01-11T12:43:26.752Z,4.70
2023-01-11T12:46:08.912Z,4.60
2023-01-11T12:48:50.974Z,3.57
2023-01-11T12:52:03.293Z,5.60
2023-01-11T12:54:45.215Z,3.93
2023-01-11T12:57:28.610Z,3.67
2023-01-11T13:00:14.151Z,4.63
2023-01-11T13:02:59.945Z,3.27
2023-01-11T13:05:40.197Z,3.50
2023-01-11T13:08:13.211Z,4.13
2023-01-11T13:10:54.753Z,3.37
2023-01-11T13:13:30.066Z,5.03
2023-01-11T13:16:00.321Z,4.07
2023-01-11T13:18:50.771Z,5.07
2023-01-11T13:21:25.460Z,3.45
2023-01-11T13:23:57.453Z,4.38
2023-01-11T13:26:26.657Z,4.03
2023-01-11T13:29:04.156Z,6.57
2023-01-11T13:31:32.937Z,4.90
2023-01-11T13:34:11.161Z,5.87
2023-01-11T13:36:43.538Z,7.00
2023-01-11T13:39:17.309Z,5.77
2023-01-11T13:41:49.971Z,5.00
2023-01-11T13:44:17.161Z,5.07
2023-01-11T13:46:44.882Z,4.10
2023-01-11T13:49:15.060Z,4.30
2023-01-11T13:51:46.987Z,4.83
2023-01-11T13:54:20.788Z,4.13
2023-01-11T13:56:52.547Z,3.77
2023-01-11T13:59:26.092Z,4.87
2023-01-11T14:01:56.016Z,3.90
2023-01-11T14:04:30.197Z,2.83
2023-01-11T14:06:57.246Z,3.20
2023-01-11T14:09:43.026Z,2.80
2023-01-11T14:12:22.268Z,3.03
2023-01-11T14:15:01.379Z,3.17
2023-01-11T14:17:28.510Z,4.50
2023-01-11T14:20:04.903Z,3.30
2023-01-11T14:22:45.976Z,3.03
2023-01-11T14:25:23.332Z,2.80
2023-01-11T14:27:53.218Z,3.27
2023-01-11T14:30:27.544Z,3.23
2023-01-11T14:33:13.521Z,2.67
2023-01-11T14:35:43.671Z,3.73
2023-01-11T14:38:29.672Z,3.03
2023-01-11T14:41:15.569Z,2.63
2023-01-11T14:43:42.690Z,3.03
2023-01-11T14:46:09.854Z,3.53
2023-01-11T14:48:55.772Z,3.40
2023-01-11T14:51:32.486Z,2.73
2023-01-11T14:54:11.756Z,2.60
2023-01-11T14:56:45.054Z,3.30
2023-01-11T14:59:30.712Z,2.77
2023-01-11T15:02:04.198Z,2.40
2023-01-11T15:04:31.504Z,2.10
2023-01-11T15:06:59.113Z,2.30
2023-01-11T15:09:41.785Z,2.63
2023-01-11T15:12:17.528Z,2.10
2023-01-11T15:14:54.718Z,2.80
2023-01-11T15:17:43.673Z,2.60
2023-01-11T15:20:11.968Z,3.20
2023-01-11T15:22:39.456Z,2.60
2023-01-11T15:25:06.814Z,2.10
2023-01-11T15:27:35.671Z,2.43
2023-01-11T15:30:02.857Z,5.23
2023-01-11T15:32:30.066Z,2.80
2023-01-11T15:35:15.758Z,3.23
2023-01-11T15:37:49.131Z,3.60
2023-01-11T15:40:30.426Z,2.60
2023-01-11T15:43:03.561Z,3.33
2023-01-11T15:45:30.628Z,5.93
2023-01-11T15:48:12.879Z,3.63
2023-01-11T15:50:58.256Z,4.40
2023-01-11T15:53:43.887Z,3.00
2023-01-11T15:56:18.120Z,3.03
2023-01-11T15:58:45.256Z,2.90
2023-01-11T16:01:12.402Z,2.97
2023-01-11T16:03:53.970Z,3.70
2023-01-11T16:06:33.602Z,4.23
2023-01-11T16:09:09.212Z,5.07
2023-01-11T16:11:46.278Z,4.80
2023-01-11T16:14:19.194Z,3.57
2023-01-11T16:16:52.761Z,4.17
2023-01-11T16:19:21.683Z,3.13
2023-01-11T16:21:50.756Z,3.00
2023-01-11T16:24:22.461Z,3.63
2023-01-11T16:26:57.160Z,3.23
2023-01-11T16:29:26.075Z,3.30
2023-01-11T16:31:59.327Z,3.10
2023-01-11T16:34:30.685Z,3.77
2023-01-11T16:36:58.130Z,2.80
2023-01-11T16:39:26.775Z,2.93
2023-01-11T16:41:56.724Z,2.90
2023-01-11T16:44:41.816Z,3.57
2023-01-11T16:47:18.222Z,3.10
2023-01-11T16:49:49.171Z,2.90
2023-01-11T16:52:28.578Z,3.63
2023-01-11T16:54:56.763Z,2.73
2023-01-11T16:57:30.276Z,2.73
2023-01-11T17:00:10.313Z,4.53
2023-01-11T17:02:42.677Z,2.57
2023-01-11T17:05:19.253Z,2.80
2023-01-11T17:07:46.522Z,2.43
2023-01-11T17:10:19.830Z,2.47
2023-01-11T17:12:49.225Z,2.03
2023-01-11T17:15:16.310Z,2.90
2023-01-11T17:17:43.522Z,2.30
2023-01-11T17:20:23.138Z,2.03
2023-01-11T17:22:53.788Z,2.03
2023-01-11T17:25:24.794Z,1.90
2023-01-11T17:27:59.039Z,2.67
2023-01-11T17:30:26.435Z,1.87
2023-01-11T17:32:54.735Z,2.73
2023-01-11T17:35:23.586Z,2.40
2023-01-11T17:37:51.943Z,1.93
2023-01-11T17:40:19.127Z,2.20
2023-01-11T17:43:05.315Z,2.47
2023-01-11T17:45:32.733Z,2.57
2023-01-11T17:48:09.730Z,2.53
2023-01-11T17:50:40.194Z,2.83
2023-01-11T17:53:14.614Z,3.23
2023-01-11T17:55:52.495Z,3.03
2023-01-11T17:58:20.114Z,3.50
2023-01-11T18:01:08.113Z,4.03
2023-01-11T18:03:46.436Z,5.43
2023-01-11T18:06:14.825Z,5.07
2023-01-11T18:08:46.928Z,4.47
2023-01-11T18:11:21.354Z,4.53
2023-01-11T18:13:51.239Z,4.30
2023-01-11T18:16:21.766Z,5.63
2023-01-11T18:18:49.903Z,4.10
2023-01-11T18:21:26.184Z,3.20
2023-01-11T18:24:11.402Z,2.70
2023-01-11T18:26:41.587Z,3.73
2023-01-11T18:29:44.036Z,5.00
2023-01-11T18:32:14.746Z,4.20
2023-01-11T18:34:41.872Z,2.40
2023-01-11T18:37:10.813Z,3.23
2023-01-11T18:39:38.321Z,3.90
2023-01-11T18:42:08.809Z,2.70
2023-01-11T18:44:40.126Z,3.33
2023-01-11T18:47:26.809Z,2.70
2023-01-11T18:49:54.191Z,2.50
2023-01-11T18:52:22.459Z,3.53
2023-01-11T18:54:49.637Z,4.57
2023-01-11T18:57:16.910Z,4.20
2023-01-11T18:59:47.426Z,3.73
2023-01-11T19:04:48.469Z,4.43
2023-01-11T19:07:15.825Z,4.63
2023-01-11T19:09:45.005Z,3.73
2023-01-11T19:12:12.608Z,5.37
2023-01-11T19:14:42.440Z,4.60
2023-01-11T19:17:10.691Z,5.00
2023-01-11T19:19:37.894Z,4.37
2023-01-11T19:22:05.441Z,3.37
2023-01-11T19:24:33.135Z,3.80
2023-01-11T19:27:00.487Z,3.27
2023-01-11T19:29:27.812Z,4.30
2023-01-11T19:31:57.928Z,4.27
2023-01-11T19:34:25.407Z,3.93
2023-01-11T19:36:52.935Z,3.40
2023-01-11T19:39:20.147Z,3.57
2023-01-11T19:42:03.148Z,3.47
2023-01-11T19:44:33.975Z,2.47
2023-01-11T19:47:11.492Z,4.27
2023-01-11T19:49:39.750Z,5.23
2023-01-11T19:52:12.527Z,4.83
2023-01-11T19:54:43.663Z,3.37
2023-01-11T19:57:14.969Z,3.30
2023-01-11T19:59:42.584Z,3.50
2023-01-11T20:02:13.640Z,3.67
2023-01-11T20:04:41.415Z,4.37
2023-01-11T20:07:09.623Z,5.10
2023-01-11T20:09:38.123Z,3.83
2023-01-11T20:12:09.847Z,4.00
2023-01-11T20:14:38.229Z,3.83
2023-01-11T20:17:05.441Z,3.93
2023-01-11T20:19:32.803Z,3.70
2023-01-11T20:21:59.959Z,2.93
2023-01-11T20:24:30.376Z,2.70
2023-01-11T20:26:58.422Z,3.17
2023-01-11T20:29:25.588Z,2.73
2023-01-11T20:31:53.079Z,2.40
2023-01-11T20:34:22.592Z,3.37
2023-01-11T20:36:50.603Z,3.57
2023-01-11T20:39:17.808Z,3.20
2023-01-11T20:41:48.868Z,2.70
2023-01-11T20:44:23.779Z,2.80
2023-01-11T20:46:51.665Z,2.40
2023-01-11T20:49:19.389Z,2.43
2023-01-11T20:51:46.934Z,3.20
2023-01-11T20:54:14.493Z,2.20
2023-01-11T20:56:44.673Z,3.03
2023-01-11T20:59:13.599Z,3.50
2023-01-11T21:01:41.048Z,3.17
2023-01-11T21:04:11.005Z,3.40
2023-01-11T21:06:40.449Z,3.67
2023-01-11T21:09:08.408Z,5.33
2023-01-11T21:11:36.023Z,4.50
2023-01-11T21:14:11.889Z,5.30
2023-01-11T21:16:42.593Z,2.97
2023-01-11T21:19:11.631Z,4.00
2023-01-11T21:21:38.923Z,3.43
2023-01-11T21:24:08.699Z,3.63
2023-01-11T21:26:35.884Z,3.67
2023-01-11T21:31:49.769Z,4.20
2023-01-11T21:34:16.978Z,4.40
2023-01-11T21:36:44.425Z,3.60
2023-01-11T21:39:13.024Z,4.40
2023-01-11T21:41:55.605Z,4.30
2023-01-11T21:44:25.802Z,3.30
2023-01-11T21:47:01.122Z,4.73
2023-01-11T21:49:28.523Z,3.60
2023-01-11T21:51:55.747Z,2.00
2023-01-11T21:54:22.933Z,2.87
2023-01-11T21:56:50.554Z,2.90
2023-01-11T21:59:17.776Z,2.53
2023-01-11T22:01:45.603Z,2.93
2023-01-11T22:04:14.212Z,2.10
2023-01-11T22:06:42.439Z,3.20
2023-01-11T22:09:11.043Z,2.77
2023-01-11T22:11:40.979Z,2.67
2023-01-11T22:14:08.857Z,2.97
2023-01-11T22:16:38.896Z,2.17
2023-01-11T22:19:07.927Z,1.50
2023-01-11T22:21:35.962Z,2.00
2023-01-11T22:24:03.257Z,1.87
2023-01-11T22:26:33.335Z,1.70
2023-01-11T22:29:14.845Z,1.97
2023-01-11T22:31:43.617Z,1.63
2023-01-11T22:34:11.470Z,1.73
2023-01-11T22:36:38.826Z,2.07
2023-01-11T22:39:06.229Z,2.30
2023-01-11T22:41:33.561Z,2.13
2023-01-11T22:44:00.929Z,2.20
2023-01-11T22:46:28.395Z,1.60
2023-01-11T22:48:55.565Z,2.27
2023-01-11T22:51:25.693Z,2.90
2023-01-11T22:53:53.509Z,2.20
2023-01-11T22:56:24.835Z,1.97
2023-01-11T22:58:52.821Z,2.13
2023-01-11T23:01:21.234Z,2.50
2023-01-11T23:03:49.129Z,2.57
2023-01-11T23:06:20.298Z,3.27
2023-01-11T23:08:48.477Z,2.77
2023-01-11T23:11:40.008Z,2.83
2023-01-11T23:14:11.905Z,2.37
2023-01-11T23:16:39.173Z,1.90
2023-01-11T23:19:07.117Z,3.27
2023-01-11T23:21:34.298Z,2.90
2023-01-11T23:24:02.110Z,1.93
2023-01-11T23:26:29.494Z,2.67
2023-01-11T23:28:56.946Z,2.77
2023-01-11T23:31:24.880Z,3.43
2023-01-11T23:33:56.442Z,2.27
2023-01-11T23:36:24.862Z,2.53
2023-01-11T23:38:52.055Z,2.47
2023-01-11T23:41:38.171Z,2.67
2023-01-11T23:44:06.247Z,2.63
2023-01-11T23:46:51.660Z,2.80
2023-01-11T23:49:18.803Z,2.33
2023-01-11T23:51:45.942Z,2.30
2023-01-11T23:54:13.223Z,2.57
2023-01-11T23:56:40.472Z,2.60
2023-01-11T23:59:08.116Z,3.27
